createdAt,value
2022-12-07T00:01:29.102Z,94948.75
2022-12-07T00:04:14.257Z,94945.75
2022-12-07T00:06:57.245Z,94947.19
2022-12-07T00:09:42.731Z,94947.88
2022-12-07T00:12:25.775Z,94948.00
2022-12-07T00:15:09.806Z,94954.97
2022-12-07T00:17:52.907Z,94941.66
2022-12-07T00:20:35.951Z,94937.84
2022-12-07T00:23:19.005Z,94944.97
2022-12-07T00:26:08.005Z,94939.84
2022-12-07T00:28:52.296Z,94936.28
2022-12-07T00:31:39.979Z,94940.22
2022-12-07T00:34:23.839Z,94931.84
2022-12-07T00:37:06.897Z,94920.03
2022-12-07T00:39:50.019Z,94938.34
2022-12-07T00:42:34.542Z,94937.50
2022-12-07T00:45:17.799Z,94944.06
2022-12-07T00:48:00.799Z,94943.13
2022-12-07T00:50:43.859Z,94929.22
2022-12-07T00:53:28.423Z,94921.78
2022-12-07T00:56:14.588Z,94917.09
2022-12-07T00:59:00.537Z,94922.31
2022-12-07T01:01:43.802Z,94919.22
2022-12-07T01:04:26.914Z,94918.44
2022-12-07T01:07:09.980Z,94921.81
2022-12-07T01:09:52.968Z,94922.66
2022-12-07T01:12:35.986Z,94920.13
2022-12-07T01:15:20.628Z,94921.84
2022-12-07T01:18:03.673Z,94922.78
2022-12-07T01:20:46.740Z,94919.66
2022-12-07T01:23:30.565Z,94912.50
2022-12-07T01:26:15.466Z,94913.66
2022-12-07T01:29:00.189Z,94913.28
2022-12-07T01:31:44.742Z,94905.09
2022-12-07T01:34:27.818Z,94906.41
2022-12-07T01:37:10.811Z,94909.28
2022-12-07T01:39:54.437Z,94905.56
2022-12-07T01:42:37.506Z,94904.59
2022-12-07T01:45:41.158Z,94905.00
2022-12-07T01:48:29.888Z,94905.75
2022-12-07T01:51:15.890Z,94908.81
2022-12-07T01:53:59.008Z,94904.13
2022-12-07T01:56:45.237Z,94901.56
2022-12-07T01:59:28.705Z,94897.69
2022-12-07T02:02:21.022Z,94899.56
2022-12-07T02:05:07.836Z,94895.00
2022-12-07T02:07:53.208Z,94883.94
2022-12-07T02:10:36.362Z,94889.66
2022-12-07T02:13:22.228Z,94887.25
2022-12-07T02:16:15.699Z,94882.72
2022-12-07T02:19:14.397Z,94888.94
2022-12-07T02:22:08.432Z,94876.72
2022-12-07T02:24:57.684Z,94894.22
2022-12-07T02:27:48.225Z,94894.75
2022-12-07T02:30:36.383Z,94887.41
2022-12-07T02:33:26.838Z,94889.09
2022-12-07T02:36:15.520Z,94880.34
2022-12-07T02:39:03.308Z,94874.81
2022-12-07T02:41:50.710Z,94876.38
2022-12-07T02:44:35.196Z,94865.59
2022-12-07T02:47:22.357Z,94869.38
2022-12-07T02:50:07.118Z,94874.59
2022-12-07T02:52:50.406Z,94884.59
2022-12-07T02:55:40.852Z,94890.56
2022-12-07T02:58:35.019Z,94885.09
2022-12-07T03:01:29.629Z,94876.28
2022-12-07T03:04:28.584Z,94871.50
2022-12-07T03:07:20.809Z,94864.66
2022-12-07T03:10:11.237Z,94859.88
2022-12-07T03:13:04.450Z,94854.28
2022-12-07T03:15:56.999Z,94850.34
2022-12-07T03:18:44.058Z,94852.56
2022-12-07T03:21:33.621Z,94853.41
2022-12-07T03:24:19.726Z,94850.66
2022-12-07T03:27:09.079Z,94842.31
2022-12-07T03:29:57.104Z,94849.47
2022-12-07T03:32:43.776Z,94847.97
2022-12-07T03:35:31.053Z,94858.06
2022-12-07T03:38:19.625Z,94853.84
2022-12-07T03:41:08.753Z,94850.94
2022-12-07T03:43:52.140Z,94854.34
2022-12-07T03:46:45.232Z,94862.50
2022-12-07T03:49:33.442Z,94849.09
2022-12-07T03:52:25.037Z,94848.53
2022-12-07T03:55:13.515Z,94857.47
2022-12-07T03:58:01.414Z,94858.47
2022-12-07T04:00:45.480Z,94852.34
2022-12-07T04:03:28.495Z,94847.53
2022-12-07T04:06:11.607Z,94845.72
2022-12-07T04:08:54.701Z,94846.09
2022-12-07T04:11:39.125Z,94843.69
2022-12-07T04:14:22.164Z,94842.19
2022-12-07T04:17:05.351Z,94846.88
2022-12-07T04:19:48.370Z,94840.63
2022-12-07T04:22:31.481Z,94840.09
2022-12-07T04:25:14.699Z,94839.41
2022-12-07T04:27:59.090Z,94839.50
2022-12-07T04:30:42.142Z,94845.13
2022-12-07T04:33:25.202Z,94849.56
2022-12-07T04:36:08.837Z,94848.31
2022-12-07T04:38:52.062Z,94847.31
2022-12-07T04:41:35.524Z,94855.00
2022-12-07T04:44:20.868Z,94851.91
2022-12-07T04:47:04.216Z,94856.28
2022-12-07T04:49:47.443Z,94858.63
2022-12-07T04:52:30.659Z,94852.72
2022-12-07T04:55:13.889Z,94858.31
2022-12-07T04:57:57.009Z,94856.72
2022-12-07T05:00:42.106Z,94858.47
2022-12-07T05:03:25.158Z,94856.72
2022-12-07T05:06:13.211Z,94852.06
2022-12-07T05:08:56.982Z,94858.13
2022-12-07T05:11:40.090Z,94860.59
2022-12-07T05:14:23.545Z,94854.88
2022-12-07T05:17:08.042Z,94856.84
2022-12-07T05:19:51.114Z,94852.75
2022-12-07T05:22:34.230Z,94854.25
2022-12-07T05:25:17.455Z,94857.44
2022-12-07T05:28:00.732Z,94859.09
2022-12-07T05:30:43.804Z,94855.75
2022-12-07T05:33:28.327Z,94861.84
2022-12-07T05:36:11.453Z,94856.19
2022-12-07T05:38:54.678Z,94868.13
2022-12-07T05:41:54.914Z,94870.03
2022-12-07T05:44:37.972Z,94861.41
2022-12-07T05:47:21.026Z,94855.31
2022-12-07T05:50:07.326Z,94858.06
2022-12-07T05:52:50.374Z,94849.84
2022-12-07T05:55:33.475Z,94853.94
2022-12-07T05:58:34.048Z,94851.78
2022-12-07T06:01:17.131Z,94852.13
2022-12-07T06:04:00.205Z,94842.31
2022-12-07T06:06:44.764Z,94847.28
2022-12-07T06:09:29.643Z,94848.31
2022-12-07T06:12:30.977Z,94842.41
2022-12-07T06:15:14.556Z,94850.72
2022-12-07T06:17:57.596Z,94848.38
2022-12-07T06:20:40.717Z,94849.47
2022-12-07T06:23:25.181Z,94855.69
2022-12-07T06:26:08.286Z,94855.66
2022-12-07T06:28:51.410Z,94855.81
2022-12-07T06:31:34.828Z,94854.72
2022-12-07T06:34:19.595Z,94858.28
2022-12-07T06:37:02.676Z,94858.16
2022-12-07T06:39:47.300Z,94861.56
2022-12-07T06:42:30.306Z,94865.19
2022-12-07T06:45:13.400Z,94862.84
2022-12-07T06:47:56.505Z,94857.31
2022-12-07T06:50:39.680Z,94862.84
2022-12-07T06:53:22.722Z,94866.84
2022-12-07T06:56:07.964Z,94866.03
2022-12-07T06:58:51.547Z,94863.28
2022-12-07T07:01:35.999Z,94864.88
2022-12-07T07:04:19.131Z,94869.03
2022-12-07T07:07:02.233Z,94865.59
2022-12-07T07:09:45.299Z,94865.25
2022-12-07T07:12:29.781Z,94866.38
2022-12-07T07:15:13.280Z,94870.25
2022-12-07T07:17:56.340Z,94860.78
2022-12-07T07:20:39.979Z,94865.34
2022-12-07T07:23:23.667Z,94856.78
2022-12-07T07:26:06.813Z,94854.28
2022-12-07T07:28:51.255Z,94869.72
2022-12-07T07:31:36.477Z,94859.09
2022-12-07T07:34:19.737Z,94865.75
2022-12-07T07:37:02.915Z,94867.47
2022-12-07T07:39:45.928Z,94879.69
2022-12-07T07:42:28.993Z,94878.97
2022-12-07T07:45:14.079Z,94875.28
2022-12-07T07:47:57.156Z,94869.38
2022-12-07T07:50:40.133Z,94865.47
2022-12-07T07:53:23.239Z,94870.75
2022-12-07T07:56:06.600Z,94861.34
2022-12-07T07:58:53.557Z,94863.00
2022-12-07T08:01:38.084Z,94867.56
2022-12-07T08:04:21.205Z,94859.94
2022-12-07T08:07:04.301Z,94874.59
2022-12-07T08:09:47.305Z,94875.56
2022-12-07T08:12:30.329Z,94874.56
2022-12-07T08:15:13.352Z,94881.59
2022-12-07T08:17:57.857Z,94859.78
2022-12-07T08:20:42.506Z,94863.28
2022-12-07T08:23:32.450Z,94859.56
2022-12-07T08:26:20.523Z,94858.53
2022-12-07T08:29:03.628Z,94875.00
2022-12-07T08:31:46.665Z,94864.19
2022-12-07T08:34:31.203Z,94856.84
2022-12-07T08:37:14.193Z,94857.63
2022-12-07T08:39:57.201Z,94856.84
2022-12-07T08:42:41.440Z,94846.94
2022-12-07T08:45:27.422Z,94846.59
2022-12-07T08:48:15.136Z,94846.81
2022-12-07T08:51:00.177Z,94840.44
2022-12-07T08:53:44.933Z,94832.22
2022-12-07T08:56:28.659Z,94837.78
2022-12-07T08:59:13.126Z,94839.88
2022-12-07T09:01:56.516Z,94837.28
2022-12-07T09:04:39.620Z,94834.56
2022-12-07T09:07:24.139Z,94820.97
2022-12-07T09:10:08.318Z,94842.66
2022-12-07T09:12:51.574Z,94829.69
2022-12-07T09:15:34.919Z,94836.72
2022-12-07T09:18:18.124Z,94842.00
2022-12-07T09:21:01.190Z,94830.38
2022-12-07T09:23:46.896Z,94819.56
2022-12-07T09:26:29.999Z,94821.53
2022-12-07T09:29:13.074Z,94814.75
2022-12-07T09:31:56.081Z,94812.22
2022-12-07T09:34:39.249Z,94811.16
2022-12-07T09:37:22.343Z,94808.31
2022-12-07T09:40:08.573Z,94812.66
2022-12-07T09:42:54.616Z,94803.13
2022-12-07T09:45:41.275Z,94803.50
2022-12-07T09:48:31.546Z,94788.09
2022-12-07T09:51:23.314Z,94787.31
2022-12-07T09:54:07.582Z,94788.69
2022-12-07T09:56:52.060Z,94791.31
2022-12-07T09:59:36.728Z,94795.59
2022-12-07T10:02:28.399Z,94793.81
2022-12-07T10:05:22.093Z,94797.44
2022-12-07T10:08:07.481Z,94785.44
2022-12-07T10:10:53.715Z,94776.41
2022-12-07T10:13:40.268Z,94767.66
2022-12-07T10:16:40.488Z,94776.66
2022-12-07T10:19:31.476Z,94763.28
2022-12-07T10:22:17.383Z,94764.72
2022-12-07T10:25:11.496Z,94757.25
2022-12-07T10:28:03.543Z,94758.13
2022-12-07T10:30:59.255Z,94748.91
2022-12-07T10:33:52.409Z,94743.63
2022-12-07T10:36:39.084Z,94727.50
2022-12-07T10:39:23.628Z,94724.50
2022-12-07T10:42:07.108Z,94732.59
2022-12-07T10:44:51.296Z,94722.53
2022-12-07T10:47:41.505Z,94717.25
2022-12-07T10:50:54.815Z,94715.25
2022-12-07T10:54:00.604Z,94720.31
2022-12-07T10:57:18.622Z,94717.28
2022-12-07T11:00:13.941Z,94714.41
2022-12-07T11:03:18.631Z,94703.69
2022-12-07T11:06:14.050Z,94697.56
2022-12-07T11:09:18.390Z,94695.72
2022-12-07T11:12:08.166Z,94697.56
2022-12-07T11:14:58.524Z,94699.56
2022-12-07T11:17:51.049Z,94694.75
2022-12-07T11:20:47.694Z,94679.50
2022-12-07T11:23:42.402Z,94692.22
2022-12-07T11:26:49.034Z,94688.28
2022-12-07T11:29:49.282Z,94680.28
2022-12-07T11:32:51.445Z,94684.19
2022-12-07T11:35:43.613Z,94669.72
2022-12-07T11:38:38.052Z,94655.34
2022-12-07T11:41:29.251Z,94659.38
2022-12-07T11:44:33.530Z,94654.16
2022-12-07T11:47:20.934Z,94651.25
2022-12-07T11:50:19.598Z,94655.81
2022-12-07T11:53:08.146Z,94641.88
2022-12-07T11:55:57.430Z,94644.53
2022-12-07T11:58:53.604Z,94637.84
2022-12-07T12:01:50.172Z,94637.44
2022-12-07T12:04:53.607Z,94635.91
2022-12-07T12:10:55.661Z,94634.06
2022-12-07T12:17:47.847Z,94622.97
2022-12-07T12:20:35.207Z,94619.75
2022-12-07T12:23:21.439Z,94618.00
2022-12-07T12:26:09.302Z,94618.38
2022-12-07T12:28:59.535Z,94611.50
2022-12-07T12:31:43.677Z,94605.75
2022-12-07T12:34:35.972Z,94603.38
2022-12-07T12:37:47.267Z,94605.88
2022-12-07T12:40:57.704Z,94602.03
2022-12-07T12:43:55.022Z,94596.84
2022-12-07T12:46:56.432Z,94601.09
2022-12-07T12:49:44.201Z,94590.97
2022-12-07T12:52:54.150Z,94580.59
2022-12-07T12:56:09.472Z,94597.28
2022-12-07T12:59:35.429Z,94600.06
2022-12-07T13:02:24.338Z,94590.88
2022-12-07T13:05:20.501Z,94588.28
2022-12-07T13:08:05.131Z,94592.25
2022-12-07T13:10:48.900Z,94595.22
2022-12-07T13:13:35.017Z,94596.38
2022-12-07T13:16:43.473Z,94591.81
2022-12-07T13:20:03.306Z,94602.78
2022-12-07T13:22:51.539Z,94599.09
2022-12-07T13:25:43.615Z,94594.56
2022-12-07T13:28:34.520Z,94594.78
2022-12-07T13:31:36.229Z,94595.31
2022-12-07T13:34:35.911Z,94585.97
2022-12-07T13:37:27.190Z,94592.84
2022-12-07T13:40:21.018Z,94579.44
2022-12-07T13:43:07.330Z,94583.38
2022-12-07T13:45:59.159Z,94587.00
2022-12-07T13:48:47.592Z,94584.88
2022-12-07T13:51:39.042Z,94575.94
2022-12-07T13:54:23.409Z,94584.66
2022-12-07T13:57:06.591Z,94576.97
2022-12-07T13:59:50.701Z,94572.25
2022-12-07T14:02:38.778Z,94571.66
2022-12-07T14:05:27.553Z,94566.78
2022-12-07T14:08:25.859Z,94564.66
2022-12-07T14:11:19.087Z,94575.50
2022-12-07T14:14:03.804Z,94578.66
2022-12-07T14:16:58.843Z,94580.78
2022-12-07T14:19:51.634Z,94585.28
2022-12-07T14:22:36.987Z,94586.06
2022-12-07T14:25:23.289Z,94595.06
2022-12-07T14:28:06.332Z,94591.56
2022-12-07T14:30:49.541Z,94589.81
2022-12-07T14:33:32.684Z,94578.28
2022-12-07T14:36:16.666Z,94584.09
2022-12-07T14:39:00.535Z,94590.31
2022-12-07T14:41:54.099Z,94585.44
2022-12-07T14:44:37.180Z,94583.94
2022-12-07T14:50:24.370Z,94580.56
2022-12-07T14:56:07.384Z,94589.09
2022-12-07T14:58:51.854Z,94604.72
2022-12-07T15:01:34.879Z,94606.38
2022-12-07T15:04:18.161Z,94601.97
2022-12-07T15:07:03.008Z,94601.78
2022-12-07T15:09:46.199Z,94609.69
2022-12-07T15:12:29.229Z,94607.31
2022-12-07T15:15:13.725Z,94615.34
2022-12-07T15:17:56.987Z,94609.59
2022-12-07T15:20:40.286Z,94610.44
2022-12-07T15:23:23.441Z,94607.75
2022-12-07T15:26:06.953Z,94611.97
2022-12-07T15:28:50.146Z,94614.09
2022-12-07T15:34:40.598Z,94605.34
2022-12-07T15:37:23.946Z,94613.25
2022-12-07T15:40:08.739Z,94617.44
2022-12-07T15:42:51.743Z,94618.03
2022-12-07T15:45:33.864Z,94616.47
2022-12-07T15:48:27.812Z,94613.50
2022-12-07T15:51:11.620Z,94625.31
2022-12-07T15:53:54.663Z,94625.66
2022-12-07T15:56:37.776Z,94628.47
2022-12-07T15:59:21.056Z,94638.41
2022-12-07T16:02:04.142Z,94635.66
2022-12-07T16:04:48.704Z,94626.56
2022-12-07T16:07:31.811Z,94640.88
2022-12-07T16:10:14.967Z,94637.91
2022-12-07T16:12:58.080Z,94631.38
2022-12-07T16:15:41.248Z,94634.34
2022-12-07T16:18:24.429Z,94632.16
2022-12-07T16:21:09.256Z,94637.13
2022-12-07T16:23:52.322Z,94630.97
2022-12-07T16:26:35.497Z,94629.19
2022-12-07T16:29:19.659Z,94628.22
2022-12-07T16:32:02.764Z,94640.69
2022-12-07T16:34:45.775Z,94641.72
2022-12-07T16:37:30.252Z,94642.50
2022-12-07T16:40:14.429Z,94653.03
2022-12-07T16:42:57.928Z,94646.72
2022-12-07T16:45:41.196Z,94647.31
2022-12-07T16:48:24.655Z,94652.47
2022-12-07T16:51:09.766Z,94653.28
2022-12-07T16:53:55.158Z,94662.44
2022-12-07T16:56:38.203Z,94657.84
2022-12-07T16:59:21.255Z,94658.44
2022-12-07T17:02:04.907Z,94657.47
2022-12-07T17:04:48.023Z,94667.97
2022-12-07T17:07:31.151Z,94668.97
2022-12-07T17:10:15.584Z,94669.38
2022-12-07T17:12:58.739Z,94667.59
2022-12-07T17:15:43.350Z,94665.41
2022-12-07T17:18:29.774Z,94669.19
2022-12-07T17:21:12.881Z,94664.41
2022-12-07T17:23:56.014Z,94666.81
2022-12-07T17:26:42.036Z,94664.44
2022-12-07T17:29:25.076Z,94671.19
2022-12-07T17:32:08.231Z,94669.38
2022-12-07T17:34:51.298Z,94665.63
2022-12-07T17:37:34.587Z,94664.63
2022-12-07T17:40:17.796Z,94675.91
2022-12-07T17:43:02.262Z,94674.34
2022-12-07T17:45:45.453Z,94675.50
2022-12-07T17:48:28.614Z,94676.91
2022-12-07T17:51:28.863Z,94676.28
2022-12-07T17:54:12.775Z,94676.47
2022-12-07T17:56:55.875Z,94669.13
2022-12-07T17:59:40.589Z,94673.66
2022-12-07T18:02:23.793Z,94682.78
2022-12-07T18:05:07.924Z,94678.06
2022-12-07T18:07:51.143Z,94675.44
2022-12-07T18:10:34.292Z,94680.41
2022-12-07T18:13:34.950Z,94673.09
2022-12-07T18:16:23.036Z,94673.63
2022-12-07T18:19:09.201Z,94688.09
2022-12-07T18:21:52.379Z,94683.31
2022-12-07T18:24:37.300Z,94680.91
2022-12-07T18:27:20.548Z,94686.50
2022-12-07T18:30:03.656Z,94696.38
2022-12-07T18:32:48.104Z,94688.47
2022-12-07T18:35:31.717Z,94686.50
2022-12-07T18:38:14.894Z,94699.09
2022-12-07T18:40:58.268Z,94699.91
2022-12-07T18:43:41.774Z,94699.09
2022-12-07T18:46:24.846Z,94698.91
2022-12-07T18:49:10.928Z,94704.25
2022-12-07T18:51:54.029Z,94707.06
2022-12-07T18:54:37.179Z,94707.44
2022-12-07T18:57:20.217Z,94714.19
2022-12-07T19:00:04.340Z,94711.00
2022-12-07T19:02:47.650Z,94712.13
2022-12-07T19:05:32.231Z,94729.56
2022-12-07T19:08:15.555Z,94715.63
2022-12-07T19:11:23.528Z,94713.25
2022-12-07T19:14:07.377Z,94728.66
2022-12-07T19:16:52.223Z,94716.00
2022-12-07T19:19:37.818Z,94725.28
2022-12-07T19:22:24.335Z,94725.66
2022-12-07T19:25:08.080Z,94723.28
2022-12-07T19:27:51.521Z,94729.41
2022-12-07T19:30:34.712Z,94729.81
2022-12-07T19:33:17.777Z,94727.81
2022-12-07T19:36:00.829Z,94731.81
2022-12-07T19:38:51.722Z,94727.78
2022-12-07T19:41:39.356Z,94743.19
2022-12-07T19:44:25.588Z,94745.53
2022-12-07T19:47:09.461Z,94733.69
2022-12-07T19:49:53.506Z,94734.09
2022-12-07T19:52:37.049Z,94730.50
2022-12-07T19:55:22.237Z,94725.53
2022-12-07T19:58:05.928Z,94729.09
2022-12-07T20:00:49.116Z,94728.47
2022-12-07T20:03:32.597Z,94727.50
2022-12-07T20:06:18.723Z,94734.75
2022-12-07T20:09:02.421Z,94728.88
2022-12-07T20:12:04.549Z,94737.69
2022-12-07T20:14:47.839Z,94736.94
2022-12-07T20:17:31.031Z,94742.94
2022-12-07T20:20:14.480Z,94741.59
2022-12-07T20:22:57.680Z,94739.59
2022-12-07T20:25:41.019Z,94737.63
2022-12-07T20:28:25.870Z,94747.31
2022-12-07T20:31:09.041Z,94748.41
2022-12-07T20:33:53.899Z,94752.75
2022-12-07T20:36:37.763Z,94751.03
2022-12-07T20:39:21.037Z,94751.47
2022-12-07T20:42:21.459Z,94756.91
2022-12-07T20:45:09.592Z,94762.25
2022-12-07T20:47:53.749Z,94769.34
2022-12-07T20:50:42.004Z,94759.00
2022-12-07T20:53:25.487Z,94769.31
2022-12-07T20:56:09.823Z,94766.81
2022-12-07T20:58:53.254Z,94782.34
2022-12-07T21:01:38.408Z,94778.56
2022-12-07T21:04:21.662Z,94779.69
2022-12-07T21:07:05.002Z,94792.00
2022-12-07T21:09:48.115Z,94785.06
2022-12-07T21:12:31.246Z,94786.06
2022-12-07T21:15:14.531Z,94774.97
2022-12-07T21:18:04.246Z,94777.09
2022-12-07T21:20:50.295Z,94769.78
2022-12-07T21:23:35.231Z,94782.75
2022-12-07T21:26:20.616Z,94777.50
2022-12-07T21:29:04.715Z,94778.19
2022-12-07T21:31:48.319Z,94773.28
2022-12-07T21:34:32.979Z,94773.19
2022-12-07T21:37:16.278Z,94770.59
2022-12-07T21:39:59.630Z,94783.44
2022-12-07T21:42:44.917Z,94772.59
2022-12-07T21:45:28.075Z,94782.91
2022-12-07T21:48:11.477Z,94755.81
2022-12-07T21:50:56.075Z,94770.13
2022-12-07T21:53:42.098Z,94771.16
2022-12-07T21:56:27.765Z,94759.59
2022-12-07T21:59:14.474Z,94762.09
2022-12-07T22:01:57.682Z,94757.88
2022-12-07T22:04:40.775Z,94758.78
2022-12-07T22:07:25.533Z,94757.75
2022-12-07T22:10:10.289Z,94751.19
2022-12-07T22:12:55.447Z,94747.44
2022-12-07T22:15:41.593Z,94757.28
2022-12-07T22:18:24.646Z,94752.78
2022-12-07T22:21:07.988Z,94755.34
2022-12-07T22:23:53.911Z,94761.09
2022-12-07T22:26:37.030Z,94760.72
2022-12-07T22:29:21.065Z,94755.03
2022-12-07T22:32:24.690Z,94751.91
2022-12-07T22:35:07.767Z,94756.28
2022-12-07T22:37:50.836Z,94749.63
2022-12-07T22:40:35.345Z,94764.94
2022-12-07T22:43:19.035Z,94760.41
2022-12-07T22:46:02.524Z,94749.94
2022-12-07T22:48:46.068Z,94742.25
2022-12-07T22:51:31.099Z,94744.00
2022-12-07T22:54:16.926Z,94747.13
2022-12-07T22:57:01.358Z,94752.66
2022-12-07T22:59:44.454Z,94767.81
2022-12-07T23:02:27.880Z,94762.06
2022-12-07T23:05:11.634Z,94755.50
2022-12-07T23:07:54.782Z,94761.13
2022-12-07T23:10:38.043Z,94753.19
2022-12-07T23:13:39.528Z,94749.94
2022-12-07T23:16:25.461Z,94751.03
2022-12-07T23:19:09.052Z,94746.63
2022-12-07T23:21:52.385Z,94744.25
2022-12-07T23:24:35.759Z,94746.13
2022-12-07T23:27:20.894Z,94745.41
2022-12-07T23:30:06.399Z,94738.31
2022-12-07T23:32:49.648Z,94742.47
2022-12-07T23:35:32.943Z,94734.63
2022-12-07T23:38:16.000Z,94734.19
2022-12-07T23:40:59.106Z,94740.06
2022-12-07T23:43:43.512Z,94737.53
2022-12-07T23:46:31.505Z,94743.53
2022-12-07T23:49:14.640Z,94745.47
2022-12-07T23:51:58.478Z,94748.41
2022-12-07T23:54:42.011Z,94746.34
2022-12-07T23:57:25.103Z,94752.25
